Time;durP1;ratioP1;P1;durP2;ratioP2;P2;SDS_P1;SDS_P2;PMS_P1;PMS_P2;Temp;Humidity;BMP_temperature;BMP_pressure;BME280_temperature;BME280_humidity;BME280_pressure;Samples;Min_cycle;Max_cycle;Signal;HPM_P1;HPM_P2
2021/08/16 00:00:05;;;;;;;31.88;17.45;;;;;;;;;;5038386;28;20079;-59
2021/08/16 00:02:30;;;;;;;36.45;18.67;;;;;;;;;;5038958;28;20287;-59
2021/08/16 00:04:56;;;;;;;43.13;18.88;;;;;;;;;;5044581;28;20494;-59
2021/08/16 00:07:21;;;;;;;36.15;18.65;;;;;;;;;;5047539;28;20079;-58
2021/08/16 00:09:46;;;;;;;40.35;18.38;;;;;;;;;;5040367;28;20071;-59
2021/08/16 00:12:12;;;;;;;30.45;17.52;;;;;;;;;;5042660;28;20037;-59
2021/08/16 00:14:37;;;;;;;34.10;18.52;;;;;;;;;;5044977;28;20510;-59
2021/08/16 00:17:03;;;;;;;30.48;17.63;;;;;;;;;;5045953;28;20033;-59
2021/08/16 00:19:28;;;;;;;36.95;17.80;;;;;;;;;;5041311;28;20028;-59
2021/08/16 00:21:54;;;;;;;29.48;17.17;;;;;;;;;;5036575;28;20029;-59
2021/08/16 00:24:20;;;;;;;31.50;17.23;;;;;;;;;;5040180;28;20045;-59
2021/08/16 00:26:47;;;;;;;37.00;17.77;;;;;;;;;;5041688;28;20025;-59
2021/08/16 00:29:13;;;;;;;37.00;17.38;;;;;;;;;;5040644;28;20091;-59
2021/08/16 00:31:38;;;;;;;31.10;17.90;;;;;;;;;;5040760;28;20492;-59
2021/08/16 00:34:03;;;;;;;39.75;17.50;;;;;;;;;;5041846;28;20132;-59
2021/08/16 00:36:29;;;;;;;35.65;17.63;;;;;;;;;;5046382;28;20018;-59
2021/08/16 00:38:55;;;;;;;32.75;16.63;;;;;;;;;;5033818;28;20036;-59
2021/08/16 00:41:21;;;;;;;36.47;17.00;;;;;;;;;;5042192;28;20025;-58
2021/08/16 00:43:48;;;;;;;32.38;17.42;;;;;;;;;;5036096;28;20527;-59
2021/08/16 00:46:14;;;;;;;34.78;17.40;;;;;;;;;;5037884;28;20180;-59
2021/08/16 00:48:41;;;;;;;31.45;17.08;;;;;;;;;;5037120;28;20571;-59
2021/08/16 00:51:07;;;;;;;29.77;16.67;;;;;;;;;;5042575;28;20021;-59
2021/08/16 00:53:33;;;;;;;36.05;17.05;;;;;;;;;;5040110;28;20237;-60
2021/08/16 00:55:59;;;;;;;32.00;16.42;;;;;;;;;;5038855;28;20626;-60
2021/08/16 00:58:25;;;;;;;32.28;17.80;;;;;;;;;;5036887;28;20036;-59
2021/08/16 01:00:57;;;;;;;33.08;17.45;;;;;;;;;;5032136;28;20108;-59
2021/08/16 01:03:26;;;;;;;33.55;16.88;;;;;;;;;;5042871;28;20496;-59
2021/08/16 01:05:53;;;;;;;43.83;16.63;;;;;;;;;;5038819;28;20029;-59
2021/08/16 01:08:20;;;;;;;36.53;16.83;;;;;;;;;;5046800;28;20498;-59
2021/08/16 01:10:46;;;;;;;29.48;16.63;;;;;;;;;;5040647;28;20036;-59
2021/08/16 01:13:12;;;;;;;24.70;16.23;;;;;;;;;;5039971;28;20059;-59
2021/08/16 01:15:37;;;;;;;30.58;16.38;;;;;;;;;;5040352;28;20025;-59
2021/08/16 01:18:03;;;;;;;28.63;16.05;;;;;;;;;;5038147;28;20037;-59
2021/08/16 01:20:28;;;;;;;27.98;15.63;;;;;;;;;;5043676;28;20030;-59
2021/08/16 01:22:56;;;;;;;29.73;16.50;;;;;;;;;;5038089;28;20037;-59
2021/08/16 01:25:21;;;;;;;32.10;15.98;;;;;;;;;;5040063;28;20087;-59
2021/08/16 01:27:47;;;;;;;27.25;16.27;;;;;;;;;;5044565;28;20060;-59
2021/08/16 01:30:17;;;;;;;29.33;15.50;;;;;;;;;;5036744;28;20463;-59
2021/08/16 01:32:43;;;;;;;31.55;16.27;;;;;;;;;;5039864;28;20079;-59
2021/08/16 01:35:10;;;;;;;29.10;16.23;;;;;;;;;;5046634;28;20103;-59
2021/08/16 01:37:35;;;;;;;29.45;15.63;;;;;;;;;;5045624;28;20020;-60
2021/08/16 01:40:01;;;;;;;32.53;16.70;;;;;;;;;;5036271;28;20030;-59
2021/08/16 01:42:26;;;;;;;26.95;15.50;;;;;;;;;;5042049;28;20033;-59
2021/08/16 01:44:52;;;;;;;31.60;15.45;;;;;;;;;;5037110;28;20063;-59
2021/08/16 01:47:17;;;;;;;26.63;16.00;;;;;;;;;;5042092;28;20037;-59
2021/08/16 01:49:42;;;;;;;28.20;14.60;;;;;;;;;;5036837;28;20033;-59
2021/08/16 01:52:08;;;;;;;28.05;15.43;;;;;;;;;;5045212;28;20047;-59
2021/08/16 01:54:35;;;;;;;28.40;14.80;;;;;;;;;;5044859;28;20031;-60
2021/08/16 01:57:01;;;;;;;30.13;15.43;;;;;;;;;;5042784;28;20128;-59
2021/08/16 01:59:26;;;;;;;27.00;15.25;;;;;;;;;;5041827;28;20107;-59
2021/08/16 02:01:52;;;;;;;32.90;14.90;;;;;;;;;;5044158;28;20032;-59
2021/08/16 02:04:17;;;;;;;27.15;14.38;;;;;;;;;;5038932;28;20029;-60
2021/08/16 02:06:42;;;;;;;28.35;15.30;;;;;;;;;;5042356;28;20029;-61
2021/08/16 02:09:08;;;;;;;29.85;15.68;;;;;;;;;;5042768;28;20419;-61
2021/08/16 02:11:33;;;;;;;28.45;15.40;;;;;;;;;;5047871;28;20039;-61
2021/08/16 02:13:59;;;;;;;30.80;15.57;;;;;;;;;;5041632;28;20025;-61
2021/08/16 02:16:24;;;;;;;24.65;14.30;;;;;;;;;;5044435;28;20021;-60
2021/08/16 02:18:50;;;;;;;27.98;15.35;;;;;;;;;;5041363;28;20458;-60
2021/08/16 02:21:15;;;;;;;27.63;15.15;;;;;;;;;;5047213;28;20070;-59
2021/08/16 02:23:41;;;;;;;25.88;13.70;;;;;;;;;;5048881;28;20036;-59
2021/08/16 02:26:06;;;;;;;20.02;12.52;;;;;;;;;;5045004;28;20116;-60
2021/08/16 02:28:33;;;;;;;11.80;7.80;;;;;;;;;;5040545;28;20033;-59
2021/08/16 02:30:58;;;;;;;16.13;7.35;;;;;;;;;;5043782;28;20035;-59
2021/08/16 02:33:24;;;;;;;17.77;8.18;;;;;;;;;;5041648;28;20030;-59
2021/08/16 02:35:49;;;;;;;14.73;8.27;;;;;;;;;;5048007;28;20046;-59
2021/08/16 02:38:15;;;;;;;15.57;8.88;;;;;;;;;;5041124;28;20047;-59
2021/08/16 02:40:40;;;;;;;19.63;8.82;;;;;;;;;;5042281;28;20079;-59
2021/08/16 02:43:06;;;;;;;16.67;9.32;;;;;;;;;;5044479;28;20030;-59
2021/08/16 02:45:32;;;;;;;13.65;8.93;;;;;;;;;;5042422;28;20434;-59
2021/08/16 02:47:57;;;;;;;13.98;9.32;;;;;;;;;;5040164;28;20119;-59
2021/08/16 02:50:23;;;;;;;16.83;9.27;;;;;;;;;;5051669;28;20025;-59
2021/08/16 02:52:48;;;;;;;16.33;9.07;;;;;;;;;;5045620;28;20120;-59
2021/08/16 02:55:14;;;;;;;16.35;9.35;;;;;;;;;;5037813;28;20454;-59
2021/08/16 02:57:40;;;;;;;19.13;10.13;;;;;;;;;;5044010;28;20029;-59
2021/08/16 03:00:07;;;;;;;16.00;9.07;;;;;;;;;;5048331;28;20037;-59
2021/08/16 03:02:32;;;;;;;16.05;9.52;;;;;;;;;;5048875;28;20029;-59
2021/08/16 03:04:58;;;;;;;17.77;9.20;;;;;;;;;;5039713;28;20488;-59
2021/08/16 03:07:23;;;;;;;13.73;8.63;;;;;;;;;;5041801;28;20025;-59
2021/08/16 03:09:49;;;;;;;15.48;9.30;;;;;;;;;;5044478;28;20060;-59
2021/08/16 03:12:14;;;;;;;18.08;8.95;;;;;;;;;;5044826;28;20020;-59
2021/08/16 03:14:40;;;;;;;17.75;8.65;;;;;;;;;;5045367;28;20502;-59
2021/08/16 03:17:05;;;;;;;16.15;8.70;;;;;;;;;;5044531;28;20021;-59
2021/08/16 03:19:31;;;;;;;17.67;9.52;;;;;;;;;;5041581;28;20029;-59
2021/08/16 03:21:57;;;;;;;14.98;8.32;;;;;;;;;;5042661;28;20021;-59
2021/08/16 03:24:23;;;;;;;16.40;8.38;;;;;;;;;;5041160;28;20047;-59
2021/08/16 03:26:49;;;;;;;17.17;9.95;;;;;;;;;;5041011;28;20112;-59
2021/08/16 03:29:14;;;;;;;14.52;8.60;;;;;;;;;;5044607;28;20112;-59
2021/08/16 03:31:40;;;;;;;16.73;9.48;;;;;;;;;;5045420;28;20480;-59
2021/08/16 03:34:05;;;;;;;15.77;9.73;;;;;;;;;;5045902;28;20534;-59
2021/08/16 03:36:31;;;;;;;17.70;9.13;;;;;;;;;;5043482;28;20029;-59
2021/08/16 03:38:56;;;;;;;14.88;9.52;;;;;;;;;;5050082;28;20392;-59
2021/08/16 03:41:22;;;;;;;18.85;10.38;;;;;;;;;;5042308;28;20488;-59
2021/08/16 03:43:47;;;;;;;19.33;11.63;;;;;;;;;;5039703;28;20032;-59
2021/08/16 03:46:13;;;;;;;20.38;11.32;;;;;;;;;;5044490;28;20025;-59
2021/08/16 03:48:38;;;;;;;25.88;13.73;;;;;;;;;;5044283;28;20052;-59
2021/08/16 03:51:04;;;;;;;25.08;13.35;;;;;;;;;;5043708;28;20509;-58
2021/08/16 03:53:29;;;;;;;26.02;13.05;;;;;;;;;;5042785;28;20052;-59
2021/08/16 03:55:54;;;;;;;23.88;12.10;;;;;;;;;;5045811;28;20025;-59
2021/08/16 03:58:20;;;;;;;26.13;13.00;;;;;;;;;;5041982;28;20039;-59
2021/08/16 04:00:46;;;;;;;26.88;14.27;;;;;;;;;;5054526;28;20038;-59
2021/08/16 04:03:11;;;;;;;29.63;14.75;;;;;;;;;;5049817;28;20025;-59
2021/08/16 04:05:38;;;;;;;28.67;15.32;;;;;;;;;;5043437;28;20031;-59
2021/08/16 04:08:03;;;;;;;26.52;14.95;;;;;;;;;;5038968;28;20139;-59
2021/08/16 04:10:29;;;;;;;32.50;15.57;;;;;;;;;;5042084;28;20136;-59
2021/08/16 04:12:54;;;;;;;26.52;14.73;;;;;;;;;;5042165;28;20037;-59
2021/08/16 04:15:23;;;;;;;27.30;15.45;;;;;;;;;;5049628;28;20037;-60
2021/08/16 04:17:49;;;;;;;28.73;14.95;;;;;;;;;;5043986;28;20033;-59
2021/08/16 04:20:16;;;;;;;25.48;15.30;;;;;;;;;;5043054;28;20029;-59
2021/08/16 04:22:43;;;;;;;28.00;16.25;;;;;;;;;;5046641;28;20029;-59
2021/08/16 04:25:10;;;;;;;30.88;15.65;;;;;;;;;;5043111;28;20070;-59
2021/08/16 04:27:38;;;;;;;25.80;15.95;;;;;;;;;;5045154;28;20029;-59
2021/08/16 04:30:04;;;;;;;28.45;15.68;;;;;;;;;;5042599;28;20044;-59
2021/08/16 04:32:29;;;;;;;24.05;14.68;;;;;;;;;;5041242;28;20025;-59
2021/08/16 04:34:55;;;;;;;26.25;15.80;;;;;;;;;;5051462;28;20490;-59
2021/08/16 04:37:20;;;;;;;26.48;14.82;;;;;;;;;;5039840;28;20031;-59
2021/08/16 04:39:45;;;;;;;25.48;15.00;;;;;;;;;;5043593;28;20025;-59
2021/08/16 04:42:11;;;;;;;24.58;14.68;;;;;;;;;;5041340;28;20037;-59
2021/08/16 04:44:36;;;;;;;17.83;12.45;;;;;;;;;;5044155;28;20480;-58
2021/08/16 04:47:02;;;;;;;23.55;14.23;;;;;;;;;;5043255;28;20036;-58
2021/08/16 04:49:27;;;;;;;26.17;15.07;;;;;;;;;;5038403;28;20033;-58
2021/08/16 04:51:53;;;;;;;25.45;15.35;;;;;;;;;;5041971;28;20558;-58
2021/08/16 04:54:18;;;;;;;24.55;14.63;;;;;;;;;;5044273;28;20384;-58
2021/08/16 04:56:44;;;;;;;27.73;13.30;;;;;;;;;;5046429;28;20031;-58
2021/08/16 04:59:09;;;;;;;27.02;15.32;;;;;;;;;;5043353;28;20021;-58
2021/08/16 05:01:36;;;;;;;28.05;16.08;;;;;;;;;;5039928;28;20014;-58
2021/08/16 05:04:02;;;;;;;23.38;13.75;;;;;;;;;;5046157;28;20038;-58
2021/08/16 05:06:32;;;;;;;24.67;14.65;;;;;;;;;;5041129;28;20028;-58
2021/08/16 05:09:02;;;;;;;22.83;14.48;;;;;;;;;;5034625;28;20029;-59
2021/08/16 05:11:29;;;;;;;20.95;13.52;;;;;;;;;;5052746;28;20038;-59
2021/08/16 05:13:54;;;;;;;32.33;14.98;;;;;;;;;;5043882;28;20043;-59
2021/08/16 05:16:23;;;;;;;23.13;13.63;;;;;;;;;;5046179;28;20028;-59
2021/08/16 05:18:48;;;;;;;26.85;13.80;;;;;;;;;;5036251;28;20112;-59
2021/08/16 05:21:14;;;;;;;29.02;14.23;;;;;;;;;;5040741;28;20152;-59
2021/08/16 05:23:39;;;;;;;25.25;14.32;;;;;;;;;;5041948;28;20033;-59
2021/08/16 05:26:04;;;;;;;23.92;13.68;;;;;;;;;;5036669;28;20519;-59
2021/08/16 05:28:30;;;;;;;28.58;15.30;;;;;;;;;;5037642;28;20051;-59
2021/08/16 05:30:56;;;;;;;31.13;15.27;;;;;;;;;;5041150;28;20025;-59
2021/08/16 05:33:22;;;;;;;26.30;15.40;;;;;;;;;;5038533;28;20418;-59
2021/08/16 05:35:47;;;;;;;23.58;14.95;;;;;;;;;;5039190;28;20025;-59
2021/08/16 05:38:13;;;;;;;31.98;16.17;;;;;;;;;;5045542;28;20037;-59
2021/08/16 05:40:38;;;;;;;26.25;15.43;;;;;;;;;;5039027;28;20032;-59
2021/08/16 05:43:04;;;;;;;27.83;15.30;;;;;;;;;;5038799;28;20033;-59
2021/08/16 05:45:29;;;;;;;29.85;16.67;;;;;;;;;;5040837;28;20029;-59
2021/08/16 05:47:55;;;;;;;26.70;15.90;;;;;;;;;;5028590;28;20021;-59
2021/08/16 05:50:22;;;;;;;31.10;15.70;;;;;;;;;;5035232;28;20037;-58
2021/08/16 05:52:48;;;;;;;25.45;15.20;;;;;;;;;;5042077;28;20120;-59
2021/08/16 05:55:13;;;;;;;29.00;15.65;;;;;;;;;;5031936;28;20124;-59
2021/08/16 05:57:39;;;;;;;26.13;15.93;;;;;;;;;;5037415;28;20161;-59
2021/08/16 06:00:05;;;;;;;25.88;14.80;;;;;;;;;;5040166;28;20051;-59
2021/08/16 06:02:34;;;;;;;28.42;15.23;;;;;;;;;;5038995;28;20518;-59
2021/08/16 06:05:00;;;;;;;26.73;15.80;;;;;;;;;;5039445;28;20030;-59
2021/08/16 06:07:26;;;;;;;23.75;14.57;;;;;;;;;;5042037;28;20029;-59
2021/08/16 06:09:51;;;;;;;26.48;15.75;;;;;;;;;;5039068;28;20029;-60
2021/08/16 06:12:17;;;;;;;25.35;15.60;;;;;;;;;;5035734;28;20373;-59
2021/08/16 06:14:42;;;;;;;29.75;18.13;;;;;;;;;;5033733;28;20025;-58
2021/08/16 06:17:08;;;;;;;34.28;15.70;;;;;;;;;;5035413;28;20470;-59
2021/08/16 06:19:34;;;;;;;24.77;14.90;;;;;;;;;;5036001;28;20029;-59
2021/08/16 06:21:59;;;;;;;24.95;16.08;;;;;;;;;;5040166;28;20330;-60
2021/08/16 06:24:26;;;;;;;22.67;14.63;;;;;;;;;;5032215;28;20025;-60
2021/08/16 06:26:51;;;;;;;27.13;16.73;;;;;;;;;;5034581;28;20083;-60
2021/08/16 06:29:16;;;;;;;24.98;15.00;;;;;;;;;;5037922;28;20029;-59
2021/08/16 06:31:42;;;;;;;25.30;15.68;;;;;;;;;;5036190;28;20083;-60
2021/08/16 06:34:09;;;;;;;24.70;15.05;;;;;;;;;;5040040;28;20087;-59
2021/08/16 06:36:39;;;;;;;23.40;13.55;;;;;;;;;;5033589;28;20113;-60
2021/08/16 06:39:16;;;;;;;22.17;14.65;;;;;;;;;;5039009;28;20400;-59
2021/08/16 06:41:42;;;;;;;25.67;14.93;;;;;;;;;;5044055;28;20403;-59
2021/08/16 06:44:07;;;;;;;27.23;13.88;;;;;;;;;;5037736;28;20031;-59
2021/08/16 06:46:32;;;;;;;20.95;13.23;;;;;;;;;;5045912;28;20044;-59
2021/08/16 06:48:58;;;;;;;25.25;13.18;;;;;;;;;;5035719;28;20036;-59
2021/08/16 06:51:23;;;;;;;22.75;13.95;;;;;;;;;;5045884;28;20028;-60
2021/08/16 06:53:49;;;;;;;21.98;12.48;;;;;;;;;;5049216;28;20044;-58
2021/08/16 06:56:14;;;;;;;23.55;13.60;;;;;;;;;;5041072;28;20036;-59
2021/08/16 06:58:39;;;;;;;22.98;12.48;;;;;;;;;;5042582;28;20123;-58
2021/08/16 07:01:05;;;;;;;20.23;12.48;;;;;;;;;;5036156;28;20025;-59
2021/08/16 07:03:30;;;;;;;20.00;12.43;;;;;;;;;;5044733;28;20067;-59
2021/08/16 07:05:56;;;;;;;20.65;11.98;;;;;;;;;;5041848;28;20576;-59
2021/08/16 07:08:21;;;;;;;21.33;11.65;;;;;;;;;;5044080;28;20435;-59
2021/08/16 07:10:49;;;;;;;23.17;11.57;;;;;;;;;;5039307;28;20035;-59
2021/08/16 07:13:14;;;;;;;21.35;10.95;;;;;;;;;;5040705;28;20502;-59
2021/08/16 07:15:40;;;;;;;21.17;12.05;;;;;;;;;;5046537;28;20033;-59
2021/08/16 07:18:06;;;;;;;19.77;11.27;;;;;;;;;;5042334;28;20025;-59
2021/08/16 07:20:32;;;;;;;19.83;11.02;;;;;;;;;;5042524;28;20024;-59
2021/08/16 07:22:57;;;;;;;18.50;11.05;;;;;;;;;;5045538;28;20051;-59
2021/08/16 07:25:22;;;;;;;19.73;10.18;;;;;;;;;;5050843;28;20484;-58
2021/08/16 07:27:48;;;;;;;20.52;11.45;;;;;;;;;;5044264;28;20040;-59
2021/08/16 07:30:14;;;;;;;19.23;10.65;;;;;;;;;;5042944;28;20044;-59
2021/08/16 07:32:40;;;;;;;23.30;10.40;;;;;;;;;;5044689;28;20033;-59
2021/08/16 07:35:06;;;;;;;23.33;10.55;;;;;;;;;;5038987;28;20139;-58
2021/08/16 07:37:31;;;;;;;21.08;10.00;;;;;;;;;;5041921;28;20060;-59
2021/08/16 07:39:56;;;;;;;22.20;10.32;;;;;;;;;;5045960;28;20388;-59
2021/08/16 07:42:25;;;;;;;18.90;9.85;;;;;;;;;;5044277;28;20115;-59
2021/08/16 07:44:52;;;;;;;18.65;10.13;;;;;;;;;;5042654;28;20029;-59
2021/08/16 07:47:18;;;;;;;13.45;9.02;;;;;;;;;;5038156;28;20029;-58
2021/08/16 07:49:43;;;;;;;18.48;10.02;;;;;;;;;;5033700;28;20113;-59
2021/08/16 07:52:09;;;;;;;14.95;8.48;;;;;;;;;;5036592;28;20033;-59
2021/08/16 07:54:34;;;;;;;14.88;8.55;;;;;;;;;;5041542;28;20487;-59
2021/08/16 07:57:00;;;;;;;21.08;9.60;;;;;;;;;;5040955;28;20025;-59
2021/08/16 07:59:26;;;;;;;17.35;8.60;;;;;;;;;;5039146;28;20025;-59
2021/08/16 08:01:51;;;;;;;16.02;7.90;;;;;;;;;;5039582;28;20033;-60
2021/08/16 08:04:17;;;;;;;16.88;8.10;;;;;;;;;;5039767;28;20041;-60
2021/08/16 08:06:42;;;;;;;16.25;7.55;;;;;;;;;;5035881;28;21439;-60
2021/08/16 08:09:07;;;;;;;15.77;7.60;;;;;;;;;;5044098;28;20503;-61
2021/08/16 08:11:33;;;;;;;15.50;7.65;;;;;;;;;;5040811;28;20033;-60
2021/08/16 08:13:59;;;;;;;19.77;8.32;;;;;;;;;;5045144;28;20122;-60
2021/08/16 08:16:25;;;;;;;12.15;7.45;;;;;;;;;;5037384;28;20492;-60
2021/08/16 08:18:50;;;;;;;14.82;7.18;;;;;;;;;;5042584;28;20044;-60
2021/08/16 08:21:18;;;;;;;13.13;6.88;;;;;;;;;;5035370;28;20122;-60
2021/08/16 08:23:44;;;;;;;17.58;7.60;;;;;;;;;;5035162;28;20055;-60
2021/08/16 08:26:09;;;;;;;12.05;6.95;;;;;;;;;;5043382;28;20029;-60
2021/08/16 08:28:35;;;;;;;13.30;7.15;;;;;;;;;;5035969;28;20023;-60
2021/08/16 08:31:00;;;;;;;18.27;7.38;;;;;;;;;;5042837;28;20064;-60
2021/08/16 08:33:26;;;;;;;18.10;7.57;;;;;;;;;;5038285;28;20132;-60
2021/08/16 08:35:52;;;;;;;14.90;6.93;;;;;;;;;;5045158;28;20020;-60
2021/08/16 08:38:18;;;;;;;14.00;6.72;;;;;;;;;;5038619;28;20028;-60
2021/08/16 08:40:44;;;;;;;16.58;6.78;;;;;;;;;;5045266;28;20036;-60
2021/08/16 08:43:11;;;;;;;14.65;7.40;;;;;;;;;;5039785;28;20060;-60
2021/08/16 08:45:39;;;;;;;12.07;6.38;;;;;;;;;;5041839;28;20029;-60
2021/08/16 08:48:04;;;;;;;13.15;7.30;;;;;;;;;;5040963;28;20450;-60
2021/08/16 08:50:30;;;;;;;14.57;6.82;;;;;;;;;;5039542;28;20036;-60
2021/08/16 08:53:00;;;;;;;15.80;7.28;;;;;;;;;;5041023;28;20082;-60
2021/08/16 08:55:26;;;;;;;20.77;7.25;;;;;;;;;;5038387;28;20057;-60
2021/08/16 08:57:51;;;;;;;16.17;7.10;;;;;;;;;;5040227;28;20506;-60
2021/08/16 09:00:19;;;;;;;12.15;6.30;;;;;;;;;;5047313;28;20033;-60
2021/08/16 09:03:04;;;;;;;12.32;6.82;;;;;;;;;;5048555;28;20054;-60
2021/08/16 09:05:31;;;;;;;13.75;6.78;;;;;;;;;;5040115;28;20037;-61
2021/08/16 09:07:59;;;;;;;12.00;6.28;;;;;;;;;;5041767;28;20033;-60
2021/08/16 09:10:27;;;;;;;13.40;6.70;;;;;;;;;;5045302;28;20029;-60
2021/08/16 09:13:00;;;;;;;11.02;6.03;;;;;;;;;;5041905;28;20024;-60
2021/08/16 09:15:29;;;;;;;11.02;6.00;;;;;;;;;;5033623;28;20021;-61
2021/08/16 09:17:55;;;;;;;13.25;5.72;;;;;;;;;;5031390;28;20415;-60
2021/08/16 09:20:27;;;;;;;17.75;7.00;;;;;;;;;;5032667;28;20033;-61
2021/08/16 09:23:06;;;;;;;16.23;6.70;;;;;;;;;;5036796;28;20028;-60
2021/08/16 09:25:38;;;;;;;12.30;6.13;;;;;;;;;;5035858;28;20045;-61
2021/08/16 09:28:06;;;;;;;12.65;6.20;;;;;;;;;;5035416;28;20120;-61
2021/08/16 09:30:38;;;;;;;18.63;7.72;;;;;;;;;;5037151;28;20146;-61
2021/08/16 09:33:12;;;;;;;15.00;6.25;;;;;;;;;;5040037;28;20487;-60
2021/08/16 09:35:58;;;;;;;17.83;6.20;;;;;;;;;;5037908;28;20397;-61
2021/08/16 09:38:32;;;;;;;14.85;6.68;;;;;;;;;;5041581;28;20091;-61
2021/08/16 09:40:58;;;;;;;14.90;6.70;;;;;;;;;;5047813;28;20503;-61
2021/08/16 09:43:30;;;;;;;16.42;6.75;;;;;;;;;;5046486;28;20048;-61
2021/08/16 09:45:55;;;;;;;9.48;6.10;;;;;;;;;;5038637;28;20035;-61
2021/08/16 09:48:23;;;;;;;9.98;5.80;;;;;;;;;;5040514;28;20028;-60
2021/08/16 09:50:52;;;;;;;13.45;6.45;;;;;;;;;;5044721;28;20044;-60
2021/08/16 09:53:19;;;;;;;;;;;;;;;;;;5033928;28;20369;-59
2021/08/16 09:55:53;;;;;;;14.18;6.35;;;;;;;;;;5035442;28;20283;-59
2021/08/16 09:58:19;;;;;;;14.05;6.20;;;;;;;;;;5033647;28;20103;-59
2021/08/16 10:00:50;;;;;;;14.10;5.97;;;;;;;;;;5036452;28;20036;-59
2021/08/16 10:03:15;;;;;;;14.68;6.45;;;;;;;;;;5038494;28;20476;-60
2021/08/16 10:05:44;;;;;;;14.02;6.80;;;;;;;;;;5046146;28;20032;-59
2021/08/16 10:08:11;;;;;;;13.90;6.68;;;;;;;;;;5034955;28;20025;-59
2021/08/16 10:10:39;;;;;;;14.90;6.70;;;;;;;;;;5036970;28;20523;-59
2021/08/16 10:13:06;;;;;;;17.45;7.10;;;;;;;;;;5045055;28;20037;-59
2021/08/16 10:15:36;;;;;;;20.02;6.45;;;;;;;;;;5042402;28;20206;-59
2021/08/16 10:18:04;;;;;;;18.02;6.25;;;;;;;;;;5041549;28;20029;-59
2021/08/16 10:20:31;;;;;;;13.60;7.07;;;;;;;;;;5039945;28;20029;-59
2021/08/16 10:22:57;;;;;;;16.67;6.97;;;;;;;;;;5039396;28;20029;-59
2021/08/16 10:25:23;;;;;;;18.77;6.88;;;;;;;;;;5045974;28;20021;-59
2021/08/16 10:27:58;;;;;;;15.00;6.32;;;;;;;;;;5052198;28;20025;-58
2021/08/16 10:30:24;;;;;;;17.52;7.20;;;;;;;;;;5050456;28;20073;-58
2021/08/16 10:33:00;;;;;;;18.27;7.25;;;;;;;;;;5045674;28;20321;-58
2021/08/16 10:35:40;;;;;;;34.58;13.30;;;;;;;;;;5042674;28;20029;-58
2021/08/16 10:38:10;;;;;;;24.08;7.85;;;;;;;;;;5045354;28;20557;-60
2021/08/16 10:40:51;;;;;;;16.20;6.97;;;;;;;;;;5039255;28;20025;-60
2021/08/16 10:43:17;;;;;;;23.63;8.55;;;;;;;;;;5042816;28;20033;-58
2021/08/16 10:45:49;;;;;;;41.15;10.07;;;;;;;;;;5034224;28;20043;-58
2021/08/16 10:48:34;;;;;;;76.15;16.65;;;;;;;;;;5040064;28;20351;-58
2021/08/16 10:51:11;;;;;;;60.00;16.25;;;;;;;;;;5038628;28;20491;-58
2021/08/16 10:53:54;;;;;;;38.47;11.05;;;;;;;;;;5042791;28;20025;-59
2021/08/16 10:56:24;;;;;;;30.60;9.10;;;;;;;;;;5041054;28;20029;-59
2021/08/16 10:58:52;;;;;;;21.30;7.65;;;;;;;;;;5040182;28;20618;-59
2021/08/16 11:01:35;;;;;;;19.95;7.30;;;;;;;;;;5037061;28;20032;-59
2021/08/16 11:04:02;;;;;;;21.70;7.93;;;;;;;;;;5040745;28;20035;-59
2021/08/16 11:06:28;;;;;;;20.85;7.35;;;;;;;;;;5040913;28;20025;-59
2021/08/16 11:08:59;;;;;;;19.77;7.22;;;;;;;;;;5042390;28;20035;-58
2021/08/16 11:11:24;;;;;;;17.50;7.05;;;;;;;;;;5044816;28;20025;-59
2021/08/16 11:13:50;;;;;;;17.88;7.15;;;;;;;;;;5042908;28;20029;-58
2021/08/16 11:16:16;;;;;;;22.42;6.75;;;;;;;;;;5048117;28;20158;-59
2021/08/16 11:18:51;;;;;;;14.43;6.43;;;;;;;;;;5046320;28;20100;-59
2021/08/16 11:21:21;;;;;;;17.77;6.30;;;;;;;;;;5045496;28;20398;-59
2021/08/16 11:23:58;;;;;;;15.82;6.65;;;;;;;;;;5040476;28;20025;-59
2021/08/16 11:26:25;;;;;;;14.55;6.85;;;;;;;;;;5044792;28;20081;-58
2021/08/16 11:28:50;;;;;;;17.63;6.82;;;;;;;;;;5039178;28;20115;-58
2021/08/16 11:31:16;;;;;;;14.82;6.60;;;;;;;;;;5036037;28;20112;-59
2021/08/16 11:33:42;;;;;;;14.48;5.82;;;;;;;;;;5041668;28;20036;-58
2021/08/16 11:36:08;;;;;;;16.02;5.57;;;;;;;;;;5043112;28;20115;-58
2021/08/16 11:38:35;;;;;;;14.52;6.03;;;;;;;;;;5044869;28;20024;-58
2021/08/16 11:41:11;;;;;;;15.63;6.10;;;;;;;;;;5037979;28;20035;-58
2021/08/16 11:43:37;;;;;;;13.73;6.15;;;;;;;;;;5039869;28;20024;-58
2021/08/16 11:46:13;;;;;;;14.57;6.05;;;;;;;;;;5041118;28;20028;-58
2021/08/16 11:48:42;;;;;;;14.43;6.72;;;;;;;;;;5040654;28;20057;-58
2021/08/16 11:51:09;;;;;;;15.23;6.50;;;;;;;;;;5040140;28;20030;-58
2021/08/16 11:53:42;;;;;;;14.15;6.40;;;;;;;;;;5037351;28;20052;-58
2021/08/16 11:56:07;;;;;;;21.48;6.25;;;;;;;;;;5035672;28;20043;-58
2021/08/16 11:58:41;;;;;;;14.68;5.85;;;;;;;;;;5042266;28;20036;-58
2021/08/16 12:01:09;;;;;;;14.02;6.18;;;;;;;;;;5038861;28;20189;-59
2021/08/16 12:03:35;;;;;;;17.95;5.88;;;;;;;;;;5042275;28;20029;-59
2021/08/16 12:06:02;;;;;;;15.52;6.35;;;;;;;;;;5040690;28;20044;-61
2021/08/16 12:08:28;;;;;;;12.98;5.35;;;;;;;;;;5037201;28;20455;-59
2021/08/16 12:10:53;;;;;;;14.18;5.95;;;;;;;;;;5039626;28;20057;-61
2021/08/16 12:13:26;;;;;;;13.35;6.03;;;;;;;;;;5042317;28;20047;-60
2021/08/16 12:15:52;;;;;;;17.35;6.25;;;;;;;;;;5044325;28;20456;-60
2021/08/16 12:18:29;;;;;;;13.50;5.65;;;;;;;;;;5037952;28;20083;-60
2021/08/16 12:20:55;;;;;;;19.70;6.80;;;;;;;;;;5040108;28;20349;-61
2021/08/16 12:23:33;;;;;;;14.57;6.18;;;;;;;;;;5033566;28;20896;-61
2021/08/16 12:25:59;;;;;;;13.57;5.75;;;;;;;;;;5033559;28;20598;-61
2021/08/16 12:28:38;;;;;;;13.98;5.85;;;;;;;;;;5046963;28;20104;-61
2021/08/16 12:31:27;;;;;;;17.00;5.85;;;;;;;;;;5037253;28;20047;-61
2021/08/16 12:34:03;;;;;;;13.70;5.60;;;;;;;;;;5037247;28;20025;-63
2021/08/16 12:36:30;;;;;;;17.20;7.07;;;;;;;;;;5037583;28;20395;-62
2021/08/16 12:38:57;;;;;;;10.57;5.63;;;;;;;;;;5042242;28;20123;-62
2021/08/16 12:41:24;;;;;;;12.35;6.25;;;;;;;;;;5038333;28;20017;-62
2021/08/16 12:43:50;;;;;;;14.68;6.68;;;;;;;;;;5044036;28;20580;-63
2021/08/16 12:46:26;;;;;;;14.68;6.00;;;;;;;;;;5036272;28;20365;-64
2021/08/16 12:48:52;;;;;;;14.65;6.45;;;;;;;;;;5034314;28;20032;-62
2021/08/16 12:51:17;;;;;;;19.25;5.97;;;;;;;;;;5038400;28;20025;-62
2021/08/16 12:53:43;;;;;;;11.15;5.65;;;;;;;;;;5043758;28;20488;-59
2021/08/16 12:56:08;;;;;;;13.55;5.60;;;;;;;;;;5031713;28;20044;-62
2021/08/16 12:58:34;;;;;;;17.10;5.70;;;;;;;;;;5047053;28;20112;-61
2021/08/16 13:00:59;;;;;;;12.38;5.82;;;;;;;;;;5036332;28;20028;-63
2021/08/16 13:03:26;;;;;;;13.57;6.18;;;;;;;;;;5039329;28;20112;-61
2021/08/16 13:05:51;;;;;;;15.02;5.65;;;;;;;;;;5037655;28;20451;-61
2021/08/16 13:08:16;;;;;;;11.80;6.03;;;;;;;;;;5036806;28;20029;-61
2021/08/16 13:10:42;;;;;;;14.25;6.07;;;;;;;;;;5039202;28;20090;-61
2021/08/16 13:13:08;;;;;;;15.88;5.75;;;;;;;;;;5035553;28;20032;-62
2021/08/16 13:15:33;;;;;;;13.02;6.25;;;;;;;;;;5045774;28;20021;-62
2021/08/16 13:17:58;;;;;;;12.82;5.97;;;;;;;;;;5038381;28;20210;-62
2021/08/16 13:20:24;;;;;;;13.77;5.85;;;;;;;;;;5031610;28;20108;-62
2021/08/16 13:22:50;;;;;;;13.52;5.68;;;;;;;;;;5035869;28;20030;-61
2021/08/16 13:25:15;;;;;;;15.10;5.57;;;;;;;;;;5036142;28;20506;-61
2021/08/16 13:27:42;;;;;;;16.55;6.15;;;;;;;;;;5033086;28;20033;-61
2021/08/16 13:30:09;;;;;;;10.55;5.38;;;;;;;;;;5034894;28;20502;-62
2021/08/16 13:32:37;;;;;;;15.38;5.70;;;;;;;;;;5038981;28;20112;-62
2021/08/16 13:35:04;;;;;;;15.68;5.70;;;;;;;;;;5043979;28;20077;-62
2021/08/16 13:37:29;;;;;;;15.77;6.10;;;;;;;;;;5041026;28;20490;-61
2021/08/16 13:39:54;;;;;;;14.43;5.93;;;;;;;;;;5037202;28;20029;-62
2021/08/16 13:42:21;;;;;;;14.82;6.18;;;;;;;;;;5040447;28;20033;-61
2021/08/16 13:44:47;;;;;;;13.35;6.45;;;;;;;;;;5037638;28;20033;-61
2021/08/16 13:47:12;;;;;;;17.38;6.30;;;;;;;;;;5038051;28;20083;-62
2021/08/16 13:49:38;;;;;;;14.85;6.57;;;;;;;;;;5033333;28;20089;-62
2021/08/16 13:52:04;;;;;;;14.95;6.25;;;;;;;;;;5033809;28;20040;-61
2021/08/16 13:54:29;;;;;;;14.75;6.07;;;;;;;;;;5032904;28;20029;-61
2021/08/16 13:56:55;;;;;;;17.50;6.75;;;;;;;;;;5035492;28;20120;-61
2021/08/16 13:59:21;;;;;;;13.90;6.45;;;;;;;;;;5032763;28;20555;-61
2021/08/16 14:01:46;;;;;;;14.50;5.43;;;;;;;;;;5040433;28;20393;-60
2021/08/16 14:04:11;;;;;;;14.23;5.93;;;;;;;;;;5042811;28;20032;-61
2021/08/16 14:06:37;;;;;;;15.88;6.18;;;;;;;;;;5035838;28;20499;-61
2021/08/16 14:09:03;;;;;;;14.05;6.13;;;;;;;;;;5034164;28;20087;-60
2021/08/16 14:11:28;;;;;;;16.38;6.30;;;;;;;;;;5036469;28;20025;-61
2021/08/16 14:13:53;;;;;;;12.02;5.90;;;;;;;;;;5042838;28;20059;-61
2021/08/16 14:16:19;;;;;;;12.93;6.07;;;;;;;;;;5024926;28;20040;-62
2021/08/16 14:18:44;;;;;;;17.52;6.45;;;;;;;;;;5036787;28;20040;-62
2021/08/16 14:21:10;;;;;;;15.32;5.93;;;;;;;;;;5042928;28;20024;-62